Time;durP1;ratioP1;P1;durP2;ratioP2;P2;SDS_P1;SDS_P2;PMS_P1;PMS_P2;Temp;Humidity;BMP_temperature;BMP_pressure;BME280_temperature;BME280_humidity;BME280_pressure;Samples;Min_cycle;Max_cycle;Signal;HPM_P1;HPM_P2
2022/04/10 00:00:14;;;;;;;6.38;2.58;;;;;;;;;;5036393;28;20402;-81
2022/04/10 00:02:39;;;;;;;7.43;3.20;;;;;;;;;;5052859;28;20041;-80
2022/04/10 00:05:04;;;;;;;4.80;2.90;;;;;;;;;;5053841;28;20404;-80
2022/04/10 00:07:30;;;;;;;9.18;3.35;;;;;;;;;;5053603;28;20477;-81
2022/04/10 00:09:55;;;;;;;4.82;2.55;;;;;;;;;;5036520;28;20109;-81
2022/04/10 00:12:20;;;;;;;6.50;2.92;;;;;;;;;;5056774;28;20029;-81
2022/04/10 00:14:46;;;;;;;6.20;2.60;;;;;;;;;;5057822;28;20481;-82
2022/04/10 00:17:11;;;;;;;5.22;2.42;;;;;;;;;;5058269;28;20528;-81
2022/04/10 00:19:36;;;;;;;4.38;2.10;;;;;;;;;;5057136;28;20032;-80
2022/04/10 00:22:02;;;;;;;3.15;1.63;;;;;;;;;;5056351;28;20107;-80
2022/04/10 00:24:28;;;;;;;4.55;2.03;;;;;;;;;;5057363;28;20401;-80
2022/04/10 00:26:53;;;;;;;5.72;2.35;;;;;;;;;;5057575;28;20037;-80
2022/04/10 00:29:18;;;;;;;7.68;2.22;;;;;;;;;;5056047;28;20477;-80
2022/04/10 00:31:43;;;;;;;5.57;2.30;;;;;;;;;;5055963;28;20033;-80
2022/04/10 00:34:09;;;;;;;7.63;2.70;;;;;;;;;;5057946;28;20623;-80
2022/04/10 00:36:34;;;;;;;3.78;2.30;;;;;;;;;;5057374;28;20029;-80
2022/04/10 00:39:00;;;;;;;6.72;2.40;;;;;;;;;;5057376;28;20517;-81
2022/04/10 00:41:26;;;;;;;7.18;2.30;;;;;;;;;;5057302;28;20036;-81
2022/04/10 00:43:51;;;;;;;6.35;2.38;;;;;;;;;;5056789;28;20071;-81
2022/04/10 00:46:17;;;;;;;4.57;2.35;;;;;;;;;;5057878;28;20033;-81
2022/04/10 00:48:43;;;;;;;6.18;2.30;;;;;;;;;;5056506;28;20033;-81
2022/04/10 00:53:53;;;;;;;5.68;2.20;;;;;;;;;;5057327;28;20118;-82
2022/04/10 00:56:18;;;;;;;5.40;2.55;;;;;;;;;;5057564;28;20513;-80
2022/04/10 00:58:43;;;;;;;6.53;2.22;;;;;;;;;;5057638;28;20493;-80
2022/04/10 01:01:10;;;;;;;5.03;2.63;;;;;;;;;;5058637;28;20029;-80
2022/04/10 01:03:36;;;;;;;6.53;2.70;;;;;;;;;;5058829;28;20397;-79
2022/04/10 01:06:01;;;;;;;8.20;2.30;;;;;;;;;;5056977;28;20029;-79
2022/04/10 01:08:26;;;;;;;5.95;2.38;;;;;;;;;;5058440;28;20044;-79
2022/04/10 01:10:52;;;;;;;6.05;1.98;;;;;;;;;;5041264;28;20032;-80
2022/04/10 01:13:17;;;;;;;4.63;2.28;;;;;;;;;;5058589;28;20091;-80
2022/04/10 01:15:42;;;;;;;5.40;2.50;;;;;;;;;;5058357;28;20048;-79
2022/04/10 01:18:08;;;;;;;7.40;2.70;;;;;;;;;;5057085;28;20033;-79
2022/04/10 01:20:34;;;;;;;8.52;2.65;;;;;;;;;;5057182;28;20086;-80
2022/04/10 01:23:04;;;;;;;5.22;2.45;;;;;;;;;;5055650;28;20075;-80
2022/04/10 01:25:29;;;;;;;4.20;2.20;;;;;;;;;;5055964;28;20036;-80
2022/04/10 01:27:56;;;;;;;5.38;2.20;;;;;;;;;;5056811;28;20566;-79
2022/04/10 01:30:25;;;;;;;6.40;2.08;;;;;;;;;;5056369;28;20409;-79
2022/04/10 01:32:51;;;;;;;4.03;2.30;;;;;;;;;;5056940;28;20032;-79
2022/04/10 01:35:17;;;;;;;4.45;1.80;;;;;;;;;;5055876;28;20025;-81
2022/04/10 01:37:43;;;;;;;5.47;1.98;;;;;;;;;;5055419;28;20049;-81
2022/04/10 01:40:13;;;;;;;5.65;2.42;;;;;;;;;;5055984;28;20028;-81
2022/04/10 01:42:39;;;;;;;5.40;2.35;;;;;;;;;;5039285;28;20497;-81
2022/04/10 01:45:05;;;;;;;5.88;2.30;;;;;;;;;;5056483;28;20036;-81
2022/04/10 01:47:30;;;;;;;3.65;2.38;;;;;;;;;;5055605;28;20036;-80
2022/04/10 01:49:56;;;;;;;4.97;2.40;;;;;;;;;;5055728;28;20059;-81
2022/04/10 01:52:21;;;;;;;4.18;2.10;;;;;;;;;;5053386;28;20029;-81
2022/04/10 01:54:48;;;;;;;5.05;1.80;;;;;;;;;;5052889;28;20055;-80
2022/04/10 01:57:14;;;;;;;5.25;2.10;;;;;;;;;;5053338;28;20533;-81
2022/04/10 01:59:40;;;;;;;4.55;2.05;;;;;;;;;;5053185;28;20119;-80
2022/04/10 02:02:06;;;;;;;3.08;1.98;;;;;;;;;;5052852;28;20036;-81
2022/04/10 02:04:32;;;;;;;4.38;2.10;;;;;;;;;;5052350;28;20522;-80
2022/04/10 02:06:57;;;;;;;4.75;2.00;;;;;;;;;;5052534;28;20032;-80
2022/04/10 02:09:25;;;;;;;3.85;1.80;;;;;;;;;;5056267;28;20631;-80
2022/04/10 02:11:52;;;;;;;3.15;1.80;;;;;;;;;;5056066;28;20115;-80
2022/04/10 02:14:17;;;;;;;4.22;2.17;;;;;;;;;;5055597;28;20460;-80
2022/04/10 02:16:43;;;;;;;3.38;1.52;;;;;;;;;;5055763;28;20409;-80
2022/04/10 02:19:09;;;;;;;5.55;1.92;;;;;;;;;;5054837;28;20033;-80
2022/04/10 02:21:35;;;;;;;5.25;1.80;;;;;;;;;;5056016;28;20112;-79
2022/04/10 02:24:01;;;;;;;4.57;1.70;;;;;;;;;;5039334;28;20044;-79
2022/04/10 02:26:27;;;;;;;3.10;1.75;;;;;;;;;;5039156;28;20033;-79
2022/04/10 02:28:53;;;;;;;4.22;2.08;;;;;;;;;;5056148;28;20029;-80
2022/04/10 02:31:18;;;;;;;4.00;2.10;;;;;;;;;;5038890;28;20116;-80
2022/04/10 02:33:43;;;;;;;4.38;2.20;;;;;;;;;;5038471;28;20033;-79
2022/04/10 02:36:09;;;;;;;6.43;1.80;;;;;;;;;;5055019;28;20037;-79
2022/04/10 02:38:37;;;;;;;4.18;1.83;;;;;;;;;;5055192;28;20115;-79
2022/04/10 02:41:03;;;;;;;4.78;1.85;;;;;;;;;;5055417;28;20079;-80
2022/04/10 02:43:29;;;;;;;7.25;2.00;;;;;;;;;;5038710;28;20493;-79
2022/04/10 02:46:00;;;;;;;4.57;1.75;;;;;;;;;;5056469;28;20029;-79
2022/04/10 02:48:25;;;;;;;2.85;1.83;;;;;;;;;;5054949;28;20037;-80
2022/04/10 02:50:51;;;;;;;4.15;1.90;;;;;;;;;;5055193;28;20083;-79
2022/04/10 02:53:17;;;;;;;4.35;1.75;;;;;;;;;;5056295;28;20473;-79
2022/04/10 02:55:42;;;;;;;2.40;1.70;;;;;;;;;;5055036;28;20219;-79
2022/04/10 02:58:07;;;;;;;3.95;1.70;;;;;;;;;;5055055;28;20493;-79
2022/04/10 03:00:33;;;;;;;4.35;1.80;;;;;;;;;;5054840;28;20108;-80
2022/04/10 03:02:59;;;;;;;4.45;2.10;;;;;;;;;;5054924;28;20060;-79
2022/04/10 03:05:24;;;;;;;3.03;1.70;;;;;;;;;;5054436;28;20095;-80
2022/04/10 03:07:49;;;;;;;3.55;1.63;;;;;;;;;;5054936;28;20025;-79
2022/04/10 03:10:15;;;;;;;4.80;2.00;;;;;;;;;;5054878;28;20036;-79
2022/04/10 03:12:40;;;;;;;5.10;1.80;;;;;;;;;;5054900;28;20520;-80
2022/04/10 03:15:06;;;;;;;3.65;1.80;;;;;;;;;;5056548;28;20092;-80
2022/04/10 03:17:34;;;;;;;4.93;2.25;;;;;;;;;;5054867;28;20042;-82
2022/04/10 03:20:01;;;;;;;4.78;1.80;;;;;;;;;;5052887;28;20497;-79
2022/04/10 03:22:27;;;;;;;4.88;1.80;;;;;;;;;;5053460;28;20033;-81
2022/04/10 03:24:53;;;;;;;4.75;1.75;;;;;;;;;;5052972;28;20067;-81
2022/04/10 03:27:19;;;;;;;3.47;1.85;;;;;;;;;;5052562;28;20039;-81
2022/04/10 03:29:44;;;;;;;7.07;2.10;;;;;;;;;;5053314;28;20382;-81
2022/04/10 03:32:10;;;;;;;4.13;1.90;;;;;;;;;;5053187;28;20037;-81
2022/04/10 03:34:36;;;;;;;3.60;2.00;;;;;;;;;;5052542;28;20035;-81
2022/04/10 03:37:02;;;;;;;4.85;1.90;;;;;;;;;;5054006;28;20489;-80
2022/04/10 03:39:27;;;;;;;2.55;1.95;;;;;;;;;;5053311;28;20098;-81
2022/04/10 03:41:53;;;;;;;4.78;2.00;;;;;;;;;;5036628;28;20040;-81
2022/04/10 03:44:20;;;;;;;6.45;1.88;;;;;;;;;;5052394;28;20036;-81
2022/04/10 03:46:45;;;;;;;4.18;1.90;;;;;;;;;;5055439;28;20032;-81
2022/04/10 03:49:11;;;;;;;4.45;2.17;;;;;;;;;;5056953;28;20036;-81
2022/04/10 03:51:36;;;;;;;5.55;2.00;;;;;;;;;;5040611;28;20024;-81
2022/04/10 03:54:02;;;;;;;3.95;2.08;;;;;;;;;;5056717;28;20040;-81
2022/04/10 03:56:27;;;;;;;4.03;2.13;;;;;;;;;;5040101;28;20037;-81
2022/04/10 03:58:55;;;;;;;3.38;2.10;;;;;;;;;;5056826;28;20060;-80
2022/04/10 04:01:20;;;;;;;5.32;2.22;;;;;;;;;;5056502;28;20063;-80
2022/04/10 04:03:46;;;;;;;6.88;2.20;;;;;;;;;;5056907;28;20033;-81
2022/04/10 04:06:11;;;;;;;4.18;2.20;;;;;;;;;;5056281;28;20033;-81
2022/04/10 04:08:38;;;;;;;6.07;2.38;;;;;;;;;;5056275;28;20032;-80
2022/04/10 04:11:03;;;;;;;6.65;2.35;;;;;;;;;;5056391;28;20052;-79
2022/04/10 04:13:29;;;;;;;5.28;2.65;;;;;;;;;;5056397;28;20040;-81
2022/04/10 04:15:55;;;;;;;4.28;2.10;;;;;;;;;;5055915;28;20183;-80
2022/04/10 04:18:20;;;;;;;5.40;2.25;;;;;;;;;;5056902;28;20029;-81
2022/04/10 04:20:46;;;;;;;5.07;2.13;;;;;;;;;;5061101;28;20154;-81
2022/04/10 04:23:11;;;;;;;4.38;2.10;;;;;;;;;;5060538;28;20029;-81
2022/04/10 04:25:37;;;;;;;6.05;1.95;;;;;;;;;;5061285;28;20112;-80
2022/04/10 04:28:04;;;;;;;4.95;2.20;;;;;;;;;;5060168;28;20075;-80
2022/04/10 04:30:29;;;;;;;4.93;2.20;;;;;;;;;;5059559;28;20036;-81
2022/04/10 04:32:59;;;;;;;4.25;2.10;;;;;;;;;;5043187;28;20409;-80
2022/04/10 04:35:24;;;;;;;4.65;2.30;;;;;;;;;;5054963;28;20036;-81
2022/04/10 04:37:50;;;;;;;5.65;2.80;;;;;;;;;;5055679;28;20029;-81
2022/04/10 04:40:19;;;;;;;5.03;2.47;;;;;;;;;;5039608;28;20061;-81
2022/04/10 04:42:45;;;;;;;6.13;2.65;;;;;;;;;;5039463;28;20028;-80
2022/04/10 04:45:11;;;;;;;6.57;2.33;;;;;;;;;;5057200;28;20036;-79
2022/04/10 04:47:44;;;;;;;4.75;2.42;;;;;;;;;;5057213;28;20024;-80
2022/04/10 04:50:09;;;;;;;5.53;2.40;;;;;;;;;;5057172;28;20037;-80
2022/04/10 04:52:38;;;;;;;4.25;2.28;;;;;;;;;;5057052;28;20036;-80
2022/04/10 04:55:04;;;;;;;5.10;2.30;;;;;;;;;;5055441;28;20043;-81
2022/04/10 04:57:30;;;;;;;4.32;2.28;;;;;;;;;;5054951;28;20033;-80
2022/04/10 04:59:56;;;;;;;4.40;2.42;;;;;;;;;;5056052;28;20247;-81
2022/04/10 05:02:21;;;;;;;8.88;2.75;;;;;;;;;;5054833;28;20028;-81
2022/04/10 05:04:51;;;;;;;6.80;2.90;;;;;;;;;;5054356;28;20033;-80
2022/04/10 05:07:16;;;;;;;10.07;3.20;;;;;;;;;;5056277;28;20040;-80
2022/04/10 05:09:42;;;;;;;7.25;3.15;;;;;;;;;;5054793;28;20033;-80
2022/04/10 05:12:08;;;;;;;6.53;3.25;;;;;;;;;;5054379;28;20119;-80
2022/04/10 05:14:34;;;;;;;6.75;3.10;;;;;;;;;;5054590;28;20167;-80
2022/04/10 05:17:00;;;;;;;5.32;3.22;;;;;;;;;;5054596;28;20033;-80
2022/04/10 05:19:25;;;;;;;5.35;2.83;;;;;;;;;;5054687;28;20044;-80
2022/04/10 05:21:53;;;;;;;9.95;3.28;;;;;;;;;;5054626;28;20397;-81
2022/04/10 05:24:18;;;;;;;5.65;2.90;;;;;;;;;;5054709;28;20028;-81
2022/04/10 05:26:44;;;;;;;5.35;2.95;;;;;;;;;;5055858;28;20511;-81
2022/04/10 05:29:11;;;;;;;7.68;3.03;;;;;;;;;;5053945;28;20082;-80
2022/04/10 05:31:37;;;;;;;6.72;3.35;;;;;;;;;;5054532;28;20037;-81
2022/04/10 05:34:02;;;;;;;7.00;3.08;;;;;;;;;;5054266;28;20075;-80
2022/04/10 05:36:28;;;;;;;4.95;2.85;;;;;;;;;;5052975;28;20028;-80
2022/04/10 05:38:54;;;;;;;5.28;2.88;;;;;;;;;;5054365;28;20039;-80
2022/04/10 05:41:22;;;;;;;7.05;3.08;;;;;;;;;;5054771;28;20039;-80
2022/04/10 05:43:53;;;;;;;6.50;2.83;;;;;;;;;;5038898;28;20409;-81
2022/04/10 05:46:20;;;;;;;5.30;2.90;;;;;;;;;;5053734;28;20033;-81
2022/04/10 05:48:51;;;;;;;4.82;2.70;;;;;;;;;;5036768;28;20024;-80
2022/04/10 05:51:17;;;;;;;3.95;2.33;;;;;;;;;;5052544;28;20040;-79
2022/04/10 05:53:43;;;;;;;5.45;3.22;;;;;;;;;;5053819;28;20070;-80
2022/04/10 05:56:08;;;;;;;5.00;2.83;;;;;;;;;;5052466;28;20082;-80
2022/04/10 05:58:40;;;;;;;3.55;2.38;;;;;;;;;;5054043;28;20041;-80
2022/04/10 06:01:06;;;;;;;5.60;2.67;;;;;;;;;;5053010;28;20021;-80
2022/04/10 06:03:31;;;;;;;6.47;2.90;;;;;;;;;;5052946;28;20482;-80
2022/04/10 06:05:59;;;;;;;8.35;3.55;;;;;;;;;;5036191;28;20033;-80
2022/04/10 06:08:32;;;;;;;5.30;3.00;;;;;;;;;;5051651;28;20087;-80
2022/04/10 06:10:58;;;;;;;7.20;2.80;;;;;;;;;;5054286;28;20456;-80
2022/04/10 06:13:23;;;;;;;4.53;2.75;;;;;;;;;;5036046;28;20036;-80
2022/04/10 06:15:54;;;;;;;5.15;2.90;;;;;;;;;;5052059;28;20025;-80
2022/04/10 06:18:20;;;;;;;6.13;3.10;;;;;;;;;;5052536;28;20158;-80
2022/04/10 06:20:46;;;;;;;7.80;3.00;;;;;;;;;;5035589;28;20041;-80
2022/04/10 06:23:11;;;;;;;4.93;2.80;;;;;;;;;;5052469;28;20029;-79
2022/04/10 06:25:40;;;;;;;8.07;2.50;;;;;;;;;;5051738;28;20036;-80
2022/04/10 06:28:05;;;;;;;6.88;3.00;;;;;;;;;;5052212;28;20525;-80
2022/04/10 06:30:38;;;;;;;4.82;2.47;;;;;;;;;;5052922;28;20039;-80
2022/04/10 06:33:04;;;;;;;5.35;2.58;;;;;;;;;;5035224;28;20430;-80
2022/04/10 06:35:30;;;;;;;5.57;2.92;;;;;;;;;;5036425;28;20025;-80
2022/04/10 06:37:57;;;;;;;4.30;2.35;;;;;;;;;;5053446;28;20035;-80
2022/04/10 06:40:23;;;;;;;4.97;2.58;;;;;;;;;;5053679;28;20097;-80
2022/04/10 06:42:49;;;;;;;5.70;2.63;;;;;;;;;;5053522;28;20054;-80
2022/04/10 06:45:17;;;;;;;7.15;2.78;;;;;;;;;;5052972;28;20044;-80
2022/04/10 06:48:02;;;;;;;5.65;2.80;;;;;;;;;;5053479;28;20525;-81
2022/04/10 06:50:39;;;;;;;8.30;2.78;;;;;;;;;;5053307;28;20040;-80
2022/04/10 06:53:11;;;;;;;6.45;2.90;;;;;;;;;;5054491;28;20029;-80
2022/04/10 06:55:37;;;;;;;4.85;2.80;;;;;;;;;;5053326;28;20040;-81
2022/04/10 06:58:02;;;;;;;6.85;2.90;;;;;;;;;;5052559;28;20029;-80
2022/04/10 07:00:27;;;;;;;5.28;2.72;;;;;;;;;;5052704;28;20036;-81
2022/04/10 07:02:53;;;;;;;8.60;2.83;;;;;;;;;;5052557;28;20067;-81
2022/04/10 07:05:19;;;;;;;7.78;3.15;;;;;;;;;;5052366;28;20047;-81
2022/04/10 07:07:50;;;;;;;7.43;4.20;;;;;;;;;;5052795;28;20037;-80
2022/04/10 07:10:15;;;;;;;7.15;3.67;;;;;;;;;;5054092;28;20187;-80
2022/04/10 07:12:41;;;;;;;8.30;4.85;;;;;;;;;;5052157;28;20025;-81
2022/04/10 07:15:07;;;;;;;9.70;5.43;;;;;;;;;;5035195;28;20029;-81
2022/04/10 07:17:32;;;;;;;6.82;4.00;;;;;;;;;;5051789;28;20031;-81
2022/04/10 07:20:02;;;;;;;7.88;3.70;;;;;;;;;;5051737;28;20112;-81
2022/04/10 07:25:13;;;;;;;8.20;4.28;;;;;;;;;;5052185;28;20448;-80
2022/04/10 07:27:41;;;;;;;10.85;5.30;;;;;;;;;;5034387;28;20033;-79
2022/04/10 07:30:23;;;;;;;6.30;3.55;;;;;;;;;;5051161;28;20400;-80
2022/04/10 07:32:48;;;;;;;6.47;4.20;;;;;;;;;;5051345;28;20032;-79
2022/04/10 07:35:16;;;;;;;12.55;5.03;;;;;;;;;;5051188;28;20063;-80
2022/04/10 07:38:00;;;;;;;8.35;3.70;;;;;;;;;;5051537;28;20032;-80
2022/04/10 07:40:26;;;;;;;6.55;3.30;;;;;;;;;;5052607;28;20099;-80
2022/04/10 07:42:53;;;;;;;6.97;3.28;;;;;;;;;;5050750;28;20025;-80
2022/04/10 07:48:14;;;;;;;4.78;3.20;;;;;;;;;;5052617;28;20116;-81
2022/04/10 07:50:39;;;;;;;7.00;3.20;;;;;;;;;;5036399;28;20464;-81
2022/04/10 07:53:06;;;;;;;7.10;3.45;;;;;;;;;;5052281;28;20033;-80
2022/04/10 07:55:34;;;;;;;5.50;3.33;;;;;;;;;;5052269;28;20048;-80
2022/04/10 07:58:04;;;;;;;8.98;4.20;;;;;;;;;;5052444;28;20030;-80
2022/04/10 08:00:32;;;;;;;6.68;3.47;;;;;;;;;;5052272;28;20048;-80
2022/04/10 08:03:00;;;;;;;6.72;3.58;;;;;;;;;;5051738;28;20029;-81
2022/04/10 08:05:44;;;;;;;8.90;3.97;;;;;;;;;;5053609;28;20112;-81
2022/04/10 08:08:14;;;;;;;5.10;3.50;;;;;;;;;;5052629;28;20459;-81
2022/04/10 08:10:40;;;;;;;7.82;4.05;;;;;;;;;;5052601;28;20037;-81
2022/04/10 08:13:05;;;;;;;5.63;3.45;;;;;;;;;;5053356;28;20033;-80
2022/04/10 08:15:30;;;;;;;6.38;3.72;;;;;;;;;;5051949;28;20108;-80
2022/04/10 08:17:56;;;;;;;7.05;3.90;;;;;;;;;;5054795;28;20404;-81
2022/04/10 08:20:22;;;;;;;5.03;3.70;;;;;;;;;;5054790;28;20497;-81
2022/04/10 08:22:48;;;;;;;10.05;4.05;;;;;;;;;;5053289;28;20032;-81
2022/04/10 08:25:14;;;;;;;8.50;4.00;;;;;;;;;;5035111;28;20067;-80
2022/04/10 08:27:40;;;;;;;6.80;4.15;;;;;;;;;;5052588;28;20025;-80
2022/04/10 08:30:05;;;;;;;6.10;3.63;;;;;;;;;;5052846;28;20396;-80
2022/04/10 08:32:30;;;;;;;6.90;4.63;;;;;;;;;;5054697;28;20540;-80
2022/04/10 08:34:56;;;;;;;8.43;5.22;;;;;;;;;;5056907;28;20040;-81
2022/04/10 08:37:21;;;;;;;7.43;5.47;;;;;;;;;;5057106;28;20490;-81
2022/04/10 08:39:46;;;;;;;8.60;5.88;;;;;;;;;;5056204;28;20029;-81
2022/04/10 08:42:12;;;;;;;10.15;6.20;;;;;;;;;;5057778;28;20072;-81
2022/04/10 08:44:37;;;;;;;20.17;11.10;;;;;;;;;;5056582;28;20161;-80
2022/04/10 08:47:02;;;;;;;18.67;9.93;;;;;;;;;;5056672;28;20115;-81
2022/04/10 08:49:29;;;;;;;12.02;7.85;;;;;;;;;;5055820;28;20033;-81
2022/04/10 08:51:54;;;;;;;9.50;6.75;;;;;;;;;;5057918;28;20080;-81
2022/04/10 08:54:20;;;;;;;7.57;5.13;;;;;;;;;;5056169;28;20521;-81
2022/04/10 08:56:45;;;;;;;8.63;5.55;;;;;;;;;;5058775;28;20068;-81
2022/04/10 08:59:10;;;;;;;8.57;4.65;;;;;;;;;;5058225;28;20555;-81
2022/04/10 09:01:35;;;;;;;6.05;4.57;;;;;;;;;;5057519;28;20106;-80
2022/04/10 09:04:00;;;;;;;9.20;5.00;;;;;;;;;;5056834;28;20041;-80
2022/04/10 09:06:26;;;;;;;8.32;5.05;;;;;;;;;;5056109;28;20509;-81
2022/04/10 09:08:51;;;;;;;4.43;3.17;;;;;;;;;;5054730;28;20037;-80
2022/04/10 09:11:16;;;;;;;4.68;3.00;;;;;;;;;;5056842;28;20039;-81
2022/04/10 09:13:46;;;;;;;5.40;3.20;;;;;;;;;;5056556;28;20088;-80
2022/04/10 09:16:14;;;;;;;5.17;3.60;;;;;;;;;;5055081;28;20029;-81
2022/04/10 09:18:39;;;;;;;5.75;3.85;;;;;;;;;;5056940;28;20029;-81
2022/04/10 09:21:05;;;;;;;8.40;4.22;;;;;;;;;;5055161;28;20546;-80
2022/04/10 09:23:31;;;;;;;5.20;3.63;;;;;;;;;;5055129;28;20040;-80
2022/04/10 09:25:56;;;;;;;7.18;4.63;;;;;;;;;;5056315;28;20032;-80
2022/04/10 09:28:21;;;;;;;6.15;3.85;;;;;;;;;;5054729;28;20124;-81
2022/04/10 09:30:46;;;;;;;6.68;3.80;;;;;;;;;;5056444;28;20028;-81
2022/04/10 09:33:12;;;;;;;5.53;3.60;;;;;;;;;;5053735;28;20447;-80
2022/04/10 09:35:37;;;;;;;8.82;4.20;;;;;;;;;;5054414;28;20055;-80
2022/04/10 09:38:03;;;;;;;7.90;4.30;;;;;;;;;;5055096;28;20112;-80
2022/04/10 09:40:28;;;;;;;7.47;4.10;;;;;;;;;;5053427;28;20029;-80
2022/04/10 09:42:53;;;;;;;5.80;3.50;;;;;;;;;;5053761;28;20025;-80
2022/04/10 09:45:18;;;;;;;6.05;3.80;;;;;;;;;;5053446;28;20474;-81
2022/04/10 09:47:44;;;;;;;5.30;3.90;;;;;;;;;;5054642;28;20036;-80
2022/04/10 09:50:09;;;;;;;4.57;3.25;;;;;;;;;;5053609;28;20044;-80
2022/04/10 09:52:34;;;;;;;6.03;3.53;;;;;;;;;;5054363;28;20509;-80
2022/04/10 09:54:59;;;;;;;6.38;3.25;;;;;;;;;;5053462;28;20032;-80
2022/04/10 09:57:25;;;;;;;4.50;3.33;;;;;;;;;;5054197;28;20033;-81
2022/04/10 09:59:50;;;;;;;4.70;3.03;;;;;;;;;;5054788;28;20036;-81
2022/04/10 10:02:15;;;;;;;5.50;3.80;;;;;;;;;;5054288;28;20033;-81
2022/04/10 10:04:41;;;;;;;4.28;3.40;;;;;;;;;;5054226;28;20114;-81
2022/04/10 10:07:06;;;;;;;4.10;3.17;;;;;;;;;;5053568;28;20041;-81
2022/04/10 10:09:31;;;;;;;5.07;3.10;;;;;;;;;;5055646;28;20021;-81
2022/04/10 10:11:56;;;;;;;5.72;3.33;;;;;;;;;;5052765;28;20048;-81
2022/04/10 10:14:22;;;;;;;4.47;3.10;;;;;;;;;;5052449;28;20040;-80
2022/04/10 10:16:50;;;;;;;5.20;3.30;;;;;;;;;;5054207;28;20489;-81
2022/04/10 10:19:15;;;;;;;5.35;3.15;;;;;;;;;;5053210;28;20047;-81
2022/04/10 10:21:40;;;;;;;5.10;2.97;;;;;;;;;;5053391;28;20405;-80
2022/04/10 10:24:05;;;;;;;4.22;2.90;;;;;;;;;;5053538;28;20041;-80
2022/04/10 10:26:31;;;;;;;6.85;3.40;;;;;;;;;;5053974;28;20041;-80
2022/04/10 10:28:56;;;;;;;4.55;3.00;;;;;;;;;;5053519;28;20047;-80
2022/04/10 10:31:21;;;;;;;5.55;3.20;;;;;;;;;;5056485;28;20086;-81
2022/04/10 10:33:47;;;;;;;5.10;2.60;;;;;;;;;;5055011;28;20028;-81
2022/04/10 10:36:12;;;;;;;7.15;2.72;;;;;;;;;;5056181;28;20482;-81
2022/04/10 10:38:37;;;;;;;5.13;3.10;;;;;;;;;;5055098;28;20037;-82
2022/04/10 10:41:02;;;;;;;5.40;2.90;;;;;;;;;;5053308;28;20033;-81
2022/04/10 10:43:28;;;;;;;7.28;3.10;;;;;;;;;;5053814;28;20039;-81
2022/04/10 10:45:53;;;;;;;4.65;3.13;;;;;;;;;;5054151;28;20508;-81
2022/04/10 10:48:18;;;;;;;5.88;3.35;;;;;;;;;;5055204;28;20033;-80
2022/04/10 10:50:43;;;;;;;5.82;3.30;;;;;;;;;;5055053;28;20025;-81
2022/04/10 10:53:09;;;;;;;6.07;3.03;;;;;;;;;;5055108;28;20035;-81
2022/04/10 10:55:34;;;;;;;6.40;3.47;;;;;;;;;;5052879;28;20552;-80
2022/04/10 10:57:59;;;;;;;4.65;3.20;;;;;;;;;;5055353;28;20033;-80
2022/04/10 11:00:25;;;;;;;4.72;3.45;;;;;;;;;;5053153;28;20033;-80
2022/04/10 11:02:50;;;;;;;7.03;3.50;;;;;;;;;;5053080;28;20439;-80
2022/04/10 11:05:15;;;;;;;4.63;3.10;;;;;;;;;;5053027;28;20033;-81
2022/04/10 11:07:40;;;;;;;8.48;3.75;;;;;;;;;;5052287;28;20443;-81
2022/04/10 11:10:06;;;;;;;6.85;3.92;;;;;;;;;;5052972;28;20082;-80
2022/04/10 11:12:31;;;;;;;7.35;3.80;;;;;;;;;;5052838;28;20036;-80
2022/04/10 11:14:56;;;;;;;6.38;3.95;;;;;;;;;;5053535;28;20036;-80
2022/04/10 11:17:22;;;;;;;8.95;4.05;;;;;;;;;;5053031;28;20013;-81
2022/04/10 11:19:47;;;;;;;6.18;3.50;;;;;;;;;;5052816;28;20037;-80
2022/04/10 11:22:16;;;;;;;5.28;3.03;;;;;;;;;;5052867;28;20123;-80
2022/04/10 11:24:41;;;;;;;5.85;2.70;;;;;;;;;;5052814;28;20033;-81
2022/04/10 11:27:06;;;;;;;5.15;2.80;;;;;;;;;;5051826;28;20043;-81
2022/04/10 11:29:33;;;;;;;3.45;2.58;;;;;;;;;;5052686;28;20029;-81
2022/04/10 11:31:58;;;;;;;3.78;2.60;;;;;;;;;;5053549;28;20550;-80
2022/04/10 11:34:25;;;;;;;3.75;2.20;;;;;;;;;;5054476;28;20028;-81
2022/04/10 11:36:52;;;;;;;3.22;2.10;;;;;;;;;;5054139;28;20025;-81
2022/04/10 11:39:17;;;;;;;3.00;2.10;;;;;;;;;;5052789;28;20094;-81
2022/04/10 11:41:42;;;;;;;4.80;2.30;;;;;;;;;;5054820;28;20507;-80
2022/04/10 11:44:07;;;;;;;5.05;2.47;;;;;;;;;;5051627;28;20070;-81
2022/04/10 11:46:34;;;;;;;3.70;2.28;;;;;;;;;;5053001;28;20033;-80
2022/04/10 11:48:59;;;;;;;3.83;2.70;;;;;;;;;;5053133;28;20021;-80
2022/04/10 11:51:25;;;;;;;3.88;2.17;;;;;;;;;;5052553;28;20036;-81
2022/04/10 11:53:50;;;;;;;5.30;2.55;;;;;;;;;;5051605;28;20071;-80
2022/04/10 11:56:15;;;;;;;5.40;2.17;;;;;;;;;;5051286;28;20025;-81
2022/04/10 11:58:41;;;;;;;4.32;2.05;;;;;;;;;;5052642;28;20099;-80
2022/04/10 12:01:06;;;;;;;4.57;2.38;;;;;;;;;;5053779;28;20074;-80
2022/04/10 12:03:33;;;;;;;6.25;3.35;;;;;;;;;;5052920;28;20033;-80
2022/04/10 12:05:58;;;;;;;4.95;2.60;;;;;;;;;;5052909;28;20091;-81
2022/04/10 12:08:24;;;;;;;5.47;2.20;;;;;;;;;;5055806;28;20029;-80
2022/04/10 12:10:49;;;;;;;4.93;2.53;;;;;;;;;;5057830;28;20048;-80
2022/04/10 12:13:14;;;;;;;4.53;2.55;;;;;;;;;;5056149;28;20121;-81
2022/04/10 12:15:39;;;;;;;4.82;2.50;;;;;;;;;;5056648;28;20029;-81
2022/04/10 12:18:05;;;;;;;4.07;2.40;;;;;;;;;;5057369;28;20456;-80
2022/04/10 12:20:30;;;;;;;5.28;2.40;;;;;;;;;;5038744;28;20036;-80
2022/04/10 12:22:56;;;;;;;4.38;2.40;;;;;;;;;;5057840;28;20040;-80
2022/04/10 12:25:21;;;;;;;5.85;2.53;;;;;;;;;;5055955;28;20108;-81
2022/04/10 12:27:47;;;;;;;3.60;2.20;;;;;;;;;;5037859;28;20060;-80
2022/04/10 12:30:14;;;;;;;3.40;2.17;;;;;;;;;;5057973;28;20037;-81
2022/04/10 12:32:39;;;;;;;5.85;2.42;;;;;;;;;;5057559;28;20033;-80
2022/04/10 12:35:04;;;;;;;3.85;2.63;;;;;;;;;;5056445;28;20029;-81
2022/04/10 12:37:30;;;;;;;4.05;2.28;;;;;;;;;;5057517;28;20524;-81
2022/04/10 12:39:55;;;;;;;4.95;2.80;;;;;;;;;;5057326;28;20032;-81
2022/04/10 12:42:20;;;;;;;4.80;2.55;;;;;;;;;;5057400;28;20146;-81
2022/04/10 12:44:45;;;;;;;4.93;2.80;;;;;;;;;;5057230;28;20496;-81
2022/04/10 12:47:11;;;;;;;4.65;2.38;;;;;;;;;;5057218;28;20032;-81
2022/04/10 12:49:36;;;;;;;5.35;2.60;;;;;;;;;;5055860;28;20405;-80
2022/04/10 12:52:04;;;;;;;6.55;2.75;;;;;;;;;;5054247;28;20513;-80
2022/04/10 12:54:29;;;;;;;3.55;2.40;;;;;;;;;;5055604;28;20083;-81
2022/04/10 12:56:55;;;;;;;5.47;2.70;;;;;;;;;;5055897;28;20052;-81
2022/04/10 12:59:20;;;;;;;13.50;5.00;;;;;;;;;;5055767;28;20130;-81
2022/04/10 13:01:45;;;;;;;12.00;4.63;;;;;;;;;;5054748;28;20393;-80
2022/04/10 13:04:11;;;;;;;5.18;2.78;;;;;;;;;;5056105;28;20037;-81
2022/04/10 13:06:36;;;;;;;4.90;3.10;;;;;;;;;;5056865;28;20041;-80
2022/04/10 13:09:01;;;;;;;4.88;2.38;;;;;;;;;;5056049;28;20159;-80
2022/04/10 13:11:26;;;;;;;4.25;2.50;;;;;;;;;;5055969;28;20044;-80
2022/04/10 13:13:52;;;;;;;3.25;2.25;;;;;;;;;;5054443;28;20436;-80
2022/04/10 13:16:17;;;;;;;3.85;2.20;;;;;;;;;;5055182;28;20024;-81
2022/04/10 13:18:42;;;;;;;3.63;2.00;;;;;;;;;;5037086;28;20504;-81
2022/04/10 13:21:07;;;;;;;2.60;1.77;;;;;;;;;;5055779;28;20086;-81
2022/04/10 13:23:33;;;;;;;2.72;1.90;;;;;;;;;;5055320;28;20037;-80
2022/04/10 13:25:58;;;;;;;2.97;1.40;;;;;;;;;;5055721;28;20041;-80
2022/04/10 13:28:23;;;;;;;3.33;1.40;;;;;;;;;;5055285;28;20044;-80
2022/04/10 13:30:49;;;;;;;2.30;1.40;;;;;;;;;;5037301;28;20128;-81
2022/04/10 13:33:14;;;;;;;2.55;1.60;;;;;;;;;;5054953;28;20047;-81
2022/04/10 13:35:39;;;;;;;3.40;1.80;;;;;;;;;;5056290;28;20041;-81
2022/04/10 13:38:05;;;;;;;4.88;2.03;;;;;;;;;;5055972;28;20111;-81
2022/04/10 13:40:31;;;;;;;2.75;1.83;;;;;;;;;;5057194;28;20033;-81
2022/04/10 13:42:57;;;;;;;5.95;2.13;;;;;;;;;;5055764;28;20481;-81
2022/04/10 13:45:22;;;;;;;2.72;1.85;;;;;;;;;;5054950;28;20061;-81
2022/04/10 13:47:47;;;;;;;5.15;2.08;;;;;;;;;;5055392;28;20032;-81
2022/04/10 13:50:13;;;;;;;2.60;1.70;;;;;;;;;;5055158;28;20068;-81
2022/04/10 13:52:38;;;;;;;3.97;2.10;;;;;;;;;;5055204;28;20094;-80
2022/04/10 13:55:03;;;;;;;3.58;2.30;;;;;;;;;;5053319;28;20455;-81
2022/04/10 13:57:28;;;;;;;3.85;2.20;;;;;;;;;;5054073;28;20447;-80
2022/04/10 13:59:54;;;;;;;5.72;2.55;;;;;;;;;;5054815;28;20104;-81
2022/04/10 14:02:19;;;;;;;6.72;2.67;;;;;;;;;;5054582;28;20033;-80
2022/04/10 14:04:44;;;;;;;4.53;2.50;;;;;;;;;;5054574;28;20035;-80
2022/04/10 14:07:10;;;;;;;5.38;2.30;;;;;;;;;;5054768;28;20041;-80
2022/04/10 14:09:35;;;;;;;4.47;2.45;;;;;;;;;;5053731;28;20084;-80
2022/04/10 14:12:00;;;;;;;4.80;2.10;;;;;;;;;;5053406;28;20037;-80
2022/04/10 14:14:26;;;;;;;4.28;2.30;;;;;;;;;;5053771;28;20028;-80
2022/04/10 14:16:51;;;;;;;5.32;2.42;;;;;;;;;;5054659;28;20033;-80
2022/04/10 14:19:16;;;;;;;3.10;2.22;;;;;;;;;;5054629;28;20063;-80
2022/04/10 14:21:41;;;;;;;4.80;2.15;;;;;;;;;;5054423;28;20580;-80
2022/04/10 14:24:06;;;;;;;5.15;3.00;;;;;;;;;;5052777;28;20048;-80
2022/04/10 14:26:32;;;;;;;4.40;2.75;;;;;;;;;;5054298;28;20031;-79
2022/04/10 14:28:57;;;;;;;4.75;2.83;;;;;;;;;;5055379;28;20401;-81
2022/04/10 14:31:22;;;;;;;3.67;2.30;;;;;;;;;;5053454;28;20033;-81
2022/04/10 14:33:48;;;;;;;3.15;2.40;;;;;;;;;;5053698;28;20444;-80
2022/04/10 14:36:13;;;;;;;5.43;2.50;;;;;;;;;;5052119;28;20032;-81
2022/04/10 14:38:38;;;;;;;5.30;2.40;;;;;;;;;;5054180;28;20033;-81
2022/04/10 14:41:05;;;;;;;3.40;2.55;;;;;;;;;;5054571;28;20036;-80
2022/04/10 14:43:32;;;;;;;5.40;2.65;;;;;;;;;;5053536;28;20132;-81